Time,TemperatureF,DewpointF,PressureIn,WindDirection,WindDirectionDegrees,WindSpeedMPH,WindSpeedGustMPH,Humidity,HourlyPrecipIn,Conditions,Clouds,dailyrainin,SoftwareType,DateUTC
2013-02-25 00:01:00,37.0,36.0,30.09,SSE,167,0.0,1.0,95,-99.99,,,-99.99,,2013-02-25 08:01:00,
2013-02-25 00:11:00,37.0,36.0,30.08,ESE,108,1.0,2.0,95,-99.99,,,-99.99,,2013-02-25 08:11:00,
2013-02-25 00:21:00,37.0,36.0,30.08,South,174,1.0,1.0,96,-99.99,,,-99.99,,2013-02-25 08:21:00,
2013-02-25 00:31:00,37.0,36.0,30.08,WSW,258,1.0,2.0,96,-99.99,,,-99.99,,2013-02-25 08:31:00,
2013-02-25 00:41:00,37.0,37.0,30.08,South,179,1.0,2.0,97,-99.99,,,-99.99,,2013-02-25 08:41:00,
2013-02-25 00:52:00,38.0,37.0,30.08,SSE,161,1.0,1.0,97,-99.99,,,-99.99,,2013-02-25 08:52:00,
2013-02-25 01:01:00,37.0,37.0,30.07,WNW,286,0.0,1.0,99,-99.99,,,-99.99,,2013-02-25 09:01:00,
2013-02-25 01:12:00,37.0,37.0,30.06,NW,323,1.0,1.0,100,-99.99,,,-99.99,,2013-02-25 09:12:00,
2013-02-25 01:21:00,37.0,37.0,30.06,NE,48,1.0,1.0,100,-99.99,,,-99.99,,2013-02-25 09:21:00,
2013-02-25 01:31:00,37.0,37.0,30.05,East,90,1.0,1.0,100,-99.99,,,-99.99,,2013-02-25 09:31:00,
2013-02-25 01:41:00,37.0,37.0,30.04,SE,139,1.0,1.0,100,-99.99,,,-99.99,,2013-02-25 09:41:00,
2013-02-25 01:51:00,37.0,37.0,30.03,South,174,1.0,1.0,100,-99.99,,,-99.99,,2013-02-25 09:51:00,
2013-02-25 02:01:00,37.0,37.0,30.03,West,274,1.0,2.0,100,-99.99,,,-99.99,,2013-02-25 10:01:00,
2013-02-25 02:11:00,37.0,37.0,30.02,WSW,258,3.0,3.0,106,-99.99,,,-99.99,,2013-02-25 10:11:00,
2013-02-25 02:21:00,37.0,37.0,30.02,West,263,3.0,4.0,106,-99.99,,,-99.99,,2013-02-25 10:21:00,
2013-02-25 02:31:00,37.0,37.0,30.02,West,262,1.0,2.0,106,-99.99,,,-99.99,,2013-02-25 10:31:00,
2013-02-25 02:41:00,37.0,37.0,30.02,East,98,1.0,2.0,107,-99.99,,,-99.99,,2013-02-25 10:41:00,
2013-02-25 02:52:00,37.0,37.0,30.01,SE,135,0.0,1.0,107,-99.99,,,-99.99,,2013-02-25 10:52:00,
2013-02-25 03:01:00,37.0,37.0,30.01,SE,129,1.0,1.0,107,-99.99,,,-99.99,,2013-02-25 11:01:00,
2013-02-25 03:11:00,37.0,37.0,30.00,NE,53,1.0,2.0,107,-99.99,,,-99.99,,2013-02-25 11:11:00,
2013-02-25 03:21:00,37.0,37.0,30.00,North,3,0.0,1.0,107,-99.99,,,-99.99,,2013-02-25 11:21:00,
2013-02-25 03:32:00,37.0,37.0,30.00,WSW,246,0.0,1.0,107,-99.99,,,-99.99,,2013-02-25 11:32:00,
2013-02-25 03:42:00,37.0,37.0,30.00,SW,216,1.0,1.0,108,-99.99,,,-99.99,,2013-02-25 11:42:00,
2013-02-25 03:52:00,37.0,37.0,30.00,WSW,247,1.0,1.0,108,-99.99,,,-99.99,,2013-02-25 11:52:00,
2013-02-25 04:01:00,37.0,37.0,30.02,SW,215,1.0,2.0,108,-99.99,,,-99.99,,2013-02-25 12:01:00,
2013-02-25 04:11:00,37.0,37.0,30.02,ESE,109,1.0,3.0,108,-99.99,,,-99.99,,2013-02-25 12:11:00,
2013-02-25 04:21:00,37.0,37.0,30.02,ESE,108,2.0,4.0,108,-99.99,,,-99.99,,2013-02-25 12:21:00,
2013-02-25 04:32:00,37.0,37.0,30.02,SSW,201,1.0,1.0,108,-99.99,,,-99.99,,2013-02-25 12:32:00,
2013-02-25 04:42:00,37.0,37.0,30.02,West,273,1.0,1.0,108,-99.99,,,-99.99,,2013-02-25 12:42:00,
2013-02-25 04:53:00,37.0,37.0,30.02,SE,138,1.0,2.0,108,-99.99,,,-99.99,,2013-02-25 12:53:00,
2013-02-25 05:02:00,37.0,37.0,30.02,East,84,2.0,2.0,108,-99.99,,,-99.99,,2013-02-25 13:02:00,
2013-02-25 05:12:00,37.0,37.0,30.03,NW,322,1.0,5.0,109,-99.99,,,-99.99,,2013-02-25 13:12:00,
2013-02-25 05:22:00,37.0,37.0,30.03,SE,136,2.0,3.0,109,-99.99,,,-99.99,,2013-02-25 13:22:00,
2013-02-25 05:31:00,38.0,38.0,30.03,South,172,1.0,2.0,108,-99.99,,,-99.99,,2013-02-25 13:31:00,
2013-02-25 05:42:00,38.0,38.0,30.04,WSW,242,6.0,12.0,108,-99.99,,,-99.99,,2013-02-25 13:42:00,
2013-02-25 05:51:00,39.0,39.0,30.03,WSW,243,5.0,17.0,108,-99.99,,,-99.99,,2013-02-25 13:51:00,
2013-02-25 06:02:00,41.0,40.0,30.04,West,274,11.0,20.0,98,-99.99,,,-99.99,,2013-02-25 14:02:00,
2013-02-25 06:21:00,41.0,40.0,30.05,WSW,257,5.0,11.0,94,-99.99,,,-99.99,,2013-02-25 14:21:00,
2013-02-25 06:31:00,41.0,39.0,30.06,WSW,240,7.0,17.0,91,-99.99,,,-99.99,,2013-02-25 14:31:00,
2013-02-25 06:41:00,40.0,38.0,30.05,West,275,14.0,23.0,90,-99.99,,,-99.99,,2013-02-25 14:41:00,
2013-02-25 06:52:00,41.0,40.0,30.06,SW,233,6.0,13.0,96,-99.99,,,-99.99,,2013-02-25 14:52:00,
2013-02-25 07:02:00,41.0,39.0,30.07,West,266,12.0,21.0,93,-99.99,,,-99.99,,2013-02-25 15:02:00,
2013-02-25 07:11:00,41.0,39.0,30.07,West,263,12.0,20.0,93,-99.99,,,-99.99,,2013-02-25 15:11:00,
2013-02-25 07:21:00,40.0,39.0,30.07,SSW,205,3.0,6.0,97,-99.99,,,-99.99,,2013-02-25 15:21:00,
2013-02-25 07:32:00,40.0,40.0,30.08,WSW,249,5.0,8.0,99,-99.99,,,-99.99,,2013-02-25 15:32:00,
2013-02-25 07:41:00,40.0,39.0,30.09,WSW,250,8.0,16.0,96,-99.99,,,-99.99,,2013-02-25 15:41:00,
2013-02-25 07:51:00,40.0,39.0,30.09,West,275,9.0,17.0,97,-99.99,,,-99.99,,2013-02-25 15:51:00,
2013-02-25 08:01:00,40.0,40.0,30.09,WSW,238,4.0,6.0,99,-99.99,,,-99.99,,2013-02-25 16:01:00,
2013-02-25 08:11:00,40.0,39.0,30.10,WSW,255,12.0,24.0,95,-99.99,,,-99.99,,2013-02-25 16:11:00,
2013-02-25 08:21:00,40.0,39.0,30.11,West,264,8.0,16.0,97,-99.99,,,-99.99,,2013-02-25 16:21:00,
2013-02-25 08:31:00,40.0,39.0,30.11,WSW,257,8.0,18.0,96,-99.99,,,-99.99,,2013-02-25 16:31:00,
2013-02-25 08:41:00,40.0,40.0,30.12,SW,222,4.0,6.0,98,-99.99,,,-99.99,,2013-02-25 16:41:00,
2013-02-25 08:51:00,41.0,41.0,30.11,West,259,2.0,8.0,99,-99.99,,,-99.99,,2013-02-25 16:51:00,
2013-02-25 09:01:00,41.0,39.0,30.11,WSW,250,7.0,16.0,93,-99.99,,,-99.99,,2013-02-25 17:01:00,
2013-02-25 09:11:00,41.0,39.0,30.12,SW,230,6.0,12.0,94,-99.99,,,-99.99,,2013-02-25 17:11:00,
2013-02-25 09:21:00,41.0,39.0,30.12,WSW,240,4.0,13.0,92,-99.99,,,-99.99,,2013-02-25 17:21:00,
2013-02-25 09:31:00,41.0,40.0,30.13,SSW,198,2.0,6.0,96,-99.99,,,-99.99,,2013-02-25 17:31:00,
2013-02-25 09:41:00,41.0,40.0,30.13,SW,229,0.0,1.0,96,-99.99,,,-99.99,,2013-02-25 17:41:00,
2013-02-25 09:52:00,41.0,40.0,30.14,SSE,159,2.0,4.0,93,-99.99,,,-99.99,,2013-02-25 17:52:00,
2013-02-25 10:01:00,42.0,40.0,30.14,WNW,299,2.0,9.0,92,-99.99,,,-99.99,,2013-02-25 18:01:00,
2013-02-25 10:12:00,42.0,40.0,30.14,SSE,150,2.0,4.0,93,-99.99,,,-99.99,,2013-02-25 18:12:00,
2013-02-25 10:21:00,42.0,41.0,30.15,ESE,113,3.0,4.0,93,-99.99,,,-99.99,,2013-02-25 18:21:00,
2013-02-25 10:32:00,42.0,39.0,30.15,WNW,288,4.0,10.0,89,-99.99,,,-99.99,,2013-02-25 18:32:00,
2013-02-25 10:41:00,42.0,39.0,30.16,West,270,5.0,10.0,92,-99.99,,,-99.99,,2013-02-25 18:41:00,
2013-02-25 10:51:00,41.0,40.0,30.16,West,272,10.0,17.0,94,-99.99,,,-99.99,,2013-02-25 18:51:00,
2013-02-25 11:01:00,41.0,40.0,30.16,West,270,10.0,17.0,95,-99.99,,,-99.99,,2013-02-25 19:01:00,
2013-02-25 11:11:00,41.0,40.0,30.16,West,272,10.0,19.0,94,-99.99,,,-99.99,,2013-02-25 19:11:00,
2013-02-25 11:21:00,41.0,40.0,30.16,West,276,12.0,21.0,94,-99.99,,,-99.99,,2013-02-25 19:21:00,
2013-02-25 11:31:00,41.0,41.0,30.16,West,276,13.0,22.0,96,-99.99,,,-99.99,,2013-02-25 19:31:00,
2013-02-25 11:41:00,41.0,40.0,30.17,West,275,11.0,21.0,95,-99.99,,,-99.99,,2013-02-25 19:41:00,
2013-02-25 11:52:00,42.0,41.0,30.17,West,267,9.0,16.0,97,-99.99,,,-99.99,,2013-02-25 19:52:00,
2013-02-25 12:01:00,42.0,41.0,30.17,WSW,256,12.0,22.0,94,-99.99,,,-99.99,,2013-02-25 20:01:00,
2013-02-25 12:11:00,43.0,41.0,30.17,West,275,10.0,19.0,94,-99.99,,,-99.99,,2013-02-25 20:11:00,
2013-02-25 12:21:00,43.0,40.0,30.17,West,270,13.0,23.0,89,-99.99,,,-99.99,,2013-02-25 20:21:00,
2013-02-25 12:31:00,44.0,41.0,30.16,West,264,12.0,22.0,89,-99.99,,,-99.99,,2013-02-25 20:31:00,
2013-02-25 12:41:00,44.0,39.0,30.15,West,268,10.0,21.0,80,-99.99,,,-99.99,,2013-02-25 20:41:00,
2013-02-25 12:52:00,45.0,39.0,30.15,West,267,12.0,24.0,81,-99.99,,,-99.99,,2013-02-25 20:52:00,
2013-02-25 13:01:00,45.0,38.0,30.15,West,281,13.0,23.0,76,-99.99,,,-99.99,,2013-02-25 21:01:00,
2013-02-25 13:11:00,45.0,38.0,30.15,West,273,12.0,25.0,74,-99.99,,,-99.99,,2013-02-25 21:11:00,
2013-02-25 13:21:00,45.0,37.0,30.16,WNW,283,11.0,20.0,72,-99.99,,,-99.99,,2013-02-25 21:21:00,
2013-02-25 13:31:00,46.0,36.0,30.15,WNW,287,16.0,35.0,69,-99.99,,,-99.99,,2013-02-25 21:31:00,
2013-02-25 13:41:00,45.0,36.0,30.15,WNW,282,12.0,18.0,70,-99.99,,,-99.99,,2013-02-25 21:41:00,
2013-02-25 13:51:00,45.0,38.0,30.16,WNW,288,13.0,23.0,76,-99.99,,,-99.99,,2013-02-25 21:51:00,
2013-02-25 14:01:00,43.0,38.0,30.16,WNW,295,13.0,23.0,82,-99.99,,,-99.99,,2013-02-25 22:01:00,
2013-02-25 14:11:00,43.0,37.0,30.16,WNW,287,13.0,22.0,80,-99.99,,,-99.99,,2013-02-25 22:11:00,
2013-02-25 14:21:00,42.0,37.0,30.17,West,273,17.0,33.0,79,-99.99,,,-99.99,,2013-02-25 22:21:00,
2013-02-25 14:31:00,42.0,36.0,30.18,West,273,11.0,22.0,80,-99.99,,,-99.99,,2013-02-25 22:31:00,
2013-02-25 14:41:00,41.0,36.0,30.20,West,277,16.0,28.0,82,-99.99,,,-99.99,,2013-02-25 22:41:00,
2013-02-25 14:51:00,40.0,39.0,30.20,West,278,10.0,18.0,93,-99.99,,,-99.99,,2013-02-25 22:51:00,
2013-02-25 15:01:00,41.0,40.0,30.19,West,281,10.0,16.0,97,-99.99,,,-99.99,,2013-02-25 23:01:00,
2013-02-25 15:11:00,41.0,40.0,30.20,West,265,9.0,14.0,98,-99.99,,,-99.99,,2013-02-25 23:11:00,
2013-02-25 15:22:00,41.0,41.0,30.20,WSW,246,5.0,8.0,98,-99.99,,,-99.99,,2013-02-25 23:22:00,
2013-02-25 15:31:00,41.0,39.0,30.21,West,267,9.0,17.0,95,-99.99,,,-99.99,,2013-02-25 23:31:00,
2013-02-25 15:41:00,40.0,39.0,30.21,West,270,9.0,14.0,97,-99.99,,,-99.99,,2013-02-25 23:41:00,
2013-02-25 15:52:00,39.0,39.0,30.21,SW,228,7.0,12.0,100,-99.99,,,-99.99,,2013-02-25 23:52:00,
2013-02-25 16:01:00,39.0,39.0,30.21,WSW,249,7.0,12.0,100,-99.99,,,-99.99,,2013-02-26 00:01:00,
2013-02-25 16:11:00,40.0,39.0,30.21,West,273,5.0,9.0,97,-99.99,,,-99.99,,2013-02-26 00:11:00,
2013-02-25 16:21:00,41.0,39.0,30.20,WNW,294,10.0,17.0,93,-99.99,,,-99.99,,2013-02-26 00:21:00,
2013-02-25 16:32:00,41.0,37.0,30.21,WNW,286,12.0,18.0,86,-99.99,,,-99.99,,2013-02-26 00:32:00,
2013-02-25 16:41:00,41.0,38.0,30.22,West,276,6.0,12.0,88,-99.99,,,-99.99,,2013-02-26 00:41:00,
2013-02-25 16:51:00,40.0,38.0,30.23,WNW,298,8.0,18.0,91,-99.99,,,-99.99,,2013-02-26 00:51:00,
2013-02-25 17:01:00,40.0,39.0,30.23,WNW,300,7.0,12.0,97,-99.99,,,-99.99,,2013-02-26 01:01:00,
2013-02-25 17:11:00,40.0,39.0,30.22,WNW,289,6.0,10.0,96,-99.99,,,-99.99,,2013-02-26 01:11:00,
2013-02-25 17:21:00,40.0,39.0,30.22,WNW,297,4.0,7.0,97,-99.99,,,-99.99,,2013-02-26 01:21:00,
2013-02-25 17:31:00,40.0,39.0,30.23,WNW,288,5.0,8.0,96,-99.99,,,-99.99,,2013-02-26 01:31:00,
2013-02-25 17:41:00,40.0,37.0,30.23,West,273,11.0,18.0,91,-99.99,,,-99.99,,2013-02-26 01:41:00,
2013-02-25 17:51:00,40.0,38.0,30.23,West,277,3.0,8.0,94,-99.99,,,-99.99,,2013-02-26 01:51:00,
2013-02-25 18:01:00,40.0,37.0,30.23,West,262,8.0,15.0,91,-99.99,,,-99.99,,2013-02-26 02:01:00,
2013-02-25 18:11:00,40.0,38.0,30.24,West,261,8.0,15.0,91,-99.99,,,-99.99,,2013-02-26 02:11:00,
2013-02-25 18:21:00,39.0,37.0,30.24,West,267,6.0,11.0,90,-99.99,,,-99.99,,2013-02-26 02:21:00,
2013-02-25 18:32:00,40.0,37.0,30.24,West,264,6.0,15.0,89,-99.99,,,-99.99,,2013-02-26 02:32:00,
2013-02-25 18:41:00,40.0,36.0,30.24,WSW,258,6.0,9.0,86,-99.99,,,-99.99,,2013-02-26 02:41:00,
2013-02-25 18:52:00,39.0,35.0,30.25,WNW,289,7.0,15.0,84,-99.99,,,-99.99,,2013-02-26 02:52:00,
2013-02-25 19:01:00,40.0,38.0,30.25,WNW,286,6.0,12.0,94,-99.99,,,-99.99,,2013-02-26 03:01:00,
2013-02-25 19:11:00,39.0,37.0,30.26,West,263,6.0,9.0,90,-99.99,,,-99.99,,2013-02-26 03:11:00,
2013-02-25 19:21:00,40.0,37.0,30.26,WSW,258,7.0,12.0,89,-99.99,,,-99.99,,2013-02-26 03:21:00,
2013-02-25 19:31:00,40.0,35.0,30.26,WSW,254,6.0,12.0,83,-99.99,,,-99.99,,2013-02-26 03:31:00,
2013-02-25 19:41:00,40.0,35.0,30.26,WNW,282,8.0,13.0,83,-99.99,,,-99.99,,2013-02-26 03:41:00,
2013-02-25 19:52:00,39.0,35.0,30.27,West,275,7.0,12.0,84,-99.99,,,-99.99,,2013-02-26 03:52:00,
2013-02-25 20:01:00,39.0,36.0,30.27,West,260,4.0,11.0,87,-99.99,,,-99.99,,2013-02-26 04:01:00,
2013-02-25 20:11:00,39.0,35.0,30.28,WSW,253,5.0,10.0,84,-99.99,,,-99.99,,2013-02-26 04:11:00,
2013-02-25 20:21:00,39.0,36.0,30.28,WSW,256,7.0,11.0,86,-99.99,,,-99.99,,2013-02-26 04:21:00,
2013-02-25 20:31:00,40.0,34.0,30.28,WSW,258,6.0,10.0,80,-99.99,,,-99.99,,2013-02-26 04:31:00,
2013-02-25 20:42:00,40.0,33.0,30.29,West,267,7.0,10.0,77,-99.99,,,-99.99,,2013-02-26 04:42:00,
2013-02-25 20:51:00,39.0,33.0,30.29,WNW,283,8.0,13.0,78,-99.99,,,-99.99,,2013-02-26 04:51:00,
2013-02-25 21:01:00,39.0,36.0,30.30,WNW,282,10.0,16.0,88,-99.99,,,-99.99,,2013-02-26 05:01:00,
2013-02-25 21:11:00,38.0,37.0,30.30,WNW,285,9.0,13.0,95,-99.99,,,-99.99,,2013-02-26 05:11:00,
2013-02-25 21:21:00,38.0,38.0,30.30,WNW,290,12.0,17.0,96,-99.99,,,-99.99,,2013-02-26 05:21:00,
2013-02-25 21:31:00,38.0,37.0,30.30,West,274,13.0,20.0,95,-99.99,,,-99.99,,2013-02-26 05:31:00,
2013-02-25 21:42:00,39.0,37.0,30.29,West,265,13.0,23.0,92,-99.99,,,-99.99,,2013-02-26 05:42:00,
2013-02-25 21:52:00,39.0,36.0,30.29,West,265,14.0,21.0,88,-99.99,,,-99.99,,2013-02-26 05:52:00,
2013-02-25 22:01:00,39.0,35.0,30.29,West,269,13.0,21.0,84,-99.99,,,-99.99,,2013-02-26 06:01:00,
2013-02-25 22:11:00,39.0,34.0,30.29,West,265,12.0,24.0,83,-99.99,,,-99.99,,2013-02-26 06:11:00,
2013-02-25 22:21:00,39.0,34.0,30.29,West,273,12.0,21.0,82,-99.99,,,-99.99,,2013-02-26 06:21:00,
2013-02-25 22:31:00,39.0,35.0,30.30,West,273,12.0,22.0,86,-99.99,,,-99.99,,2013-02-26 06:31:00,
2013-02-25 22:41:00,39.0,35.0,30.30,West,274,12.0,21.0,87,-99.99,,,-99.99,,2013-02-26 06:41:00,
2013-02-25 22:51:00,39.0,36.0,30.31,West,277,7.0,15.0,88,-99.99,,,-99.99,,2013-02-26 06:51:00,
2013-02-25 23:01:00,38.0,36.0,30.32,WSW,246,4.0,8.0,90,-99.99,,,-99.99,,2013-02-26 07:01:00,
2013-02-25 23:11:00,38.0,35.0,30.32,WSW,240,1.0,2.0,88,-99.99,,,-99.99,,2013-02-26 07:11:00,
2013-02-25 23:22:00,37.0,35.0,30.32,SSW,196,2.0,7.0,91,-99.99,,,-99.99,,2013-02-26 07:22:00,
2013-02-25 23:31:00,38.0,35.0,30.32,SW,222,2.0,3.0,91,-99.99,,,-99.99,,2013-02-26 07:31:00,
2013-02-25 23:41:00,38.0,35.0,30.32,SSW,208,3.0,4.0,87,-99.99,,,-99.99,,2013-02-26 07:41:00,
2013-02-25 23:51:00,38.0,34.0,30.33,WNW,286,4.0,5.0,84,-99.99,,,-99.99,,2013-02-26 07:51:00,